sensor_id;sensor_type;location;lat;lon;timestamp;P1;durP1;ratioP1;P2;durP2;ratioP2
22677;SDS011;26259;50.214;18.620;2022-11-18T00:00:50;26.10;;;18.10;;
22677;SDS011;26259;50.214;18.620;2022-11-18T00:03:16;27.60;;;17.27;;
22677;SDS011;26259;50.214;18.620;2022-11-18T00:05:42;27.23;;;17.03;;
22677;SDS011;26259;50.214;18.620;2022-11-18T00:08:16;26.50;;;17.37;;
22677;SDS011;26259;50.214;18.620;2022-11-18T00:10:41;30.30;;;18.90;;
22677;SDS011;26259;50.214;18.620;2022-11-18T00:13:09;26.57;;;17.10;;
22677;SDS011;26259;50.214;18.620;2022-11-18T00:16:01;32.73;;;18.20;;
22677;SDS011;26259;50.214;18.620;2022-11-18T00:18:28;28.57;;;18.70;;
22677;SDS011;26259;50.214;18.620;2022-11-18T00:20:54;29.63;;;17.73;;
22677;SDS011;26259;50.214;18.620;2022-11-18T00:23:19;33.40;;;18.77;;
22677;SDS011;26259;50.214;18.620;2022-11-18T00:25:45;27.40;;;17.53;;
22677;SDS011;26259;50.214;18.620;2022-11-18T00:28:11;29.37;;;17.80;;
22677;SDS011;26259;50.214;18.620;2022-11-18T00:30:36;27.97;;;17.93;;
22677;SDS011;26259;50.214;18.620;2022-11-18T00:33:02;28.60;;;18.20;;
22677;SDS011;26259;50.214;18.620;2022-11-18T00:35:27;31.40;;;17.43;;
22677;SDS011;26259;50.214;18.620;2022-11-18T00:37:53;25.67;;;16.87;;
22677;SDS011;26259;50.214;18.620;2022-11-18T00:40:18;27.87;;;17.57;;
22677;SDS011;26259;50.214;18.620;2022-11-18T00:42:44;30.93;;;17.73;;
22677;SDS011;26259;50.214;18.620;2022-11-18T00:45:16;29.03;;;17.70;;
22677;SDS011;26259;50.214;18.620;2022-11-18T00:47:42;25.60;;;16.27;;
22677;SDS011;26259;50.214;18.620;2022-11-18T00:50:08;29.73;;;17.30;;
22677;SDS011;26259;50.214;18.620;2022-11-18T00:52:34;26.07;;;16.63;;
22677;SDS011;26259;50.214;18.620;2022-11-18T00:54:59;27.13;;;17.03;;
22677;SDS011;26259;50.214;18.620;2022-11-18T00:57:25;27.07;;;17.00;;
22677;SDS011;26259;50.214;18.620;2022-11-18T00:59:50;28.27;;;16.97;;
22677;SDS011;26259;50.214;18.620;2022-11-18T01:02:16;28.87;;;17.47;;
22677;SDS011;26259;50.214;18.620;2022-11-18T01:04:42;28.07;;;17.57;;
22677;SDS011;26259;50.214;18.620;2022-11-18T01:07:07;30.10;;;17.23;;
22677;SDS011;26259;50.214;18.620;2022-11-18T01:09:33;27.97;;;17.73;;
22677;SDS011;26259;50.214;18.620;2022-11-18T01:11:58;29.80;;;17.83;;
22677;SDS011;26259;50.214;18.620;2022-11-18T01:14:43;29.13;;;17.90;;
22677;SDS011;26259;50.214;18.620;2022-11-18T01:17:08;32.53;;;18.17;;
22677;SDS011;26259;50.214;18.620;2022-11-18T01:19:34;28.67;;;18.20;;
22677;SDS011;26259;50.214;18.620;2022-11-18T01:22:00;31.37;;;18.63;;
22677;SDS011;26259;50.214;18.620;2022-11-18T01:24:30;32.60;;;19.87;;
22677;SDS011;26259;50.214;18.620;2022-11-18T01:26:57;34.20;;;20.20;;
22677;SDS011;26259;50.214;18.620;2022-11-18T01:29:23;32.43;;;20.40;;
22677;SDS011;26259;50.214;18.620;2022-11-18T01:31:48;34.33;;;20.73;;
22677;SDS011;26259;50.214;18.620;2022-11-18T01:34:14;33.13;;;19.73;;
22677;SDS011;26259;50.214;18.620;2022-11-18T01:36:40;35.23;;;20.70;;
22677;SDS011;26259;50.214;18.620;2022-11-18T01:39:05;39.43;;;21.70;;
22677;SDS011;26259;50.214;18.620;2022-11-18T01:41:31;33.93;;;21.23;;
22677;SDS011;26259;50.214;18.620;2022-11-18T01:44:00;36.57;;;21.30;;
22677;SDS011;26259;50.214;18.620;2022-11-18T01:46:29;32.67;;;20.60;;
22677;SDS011;26259;50.214;18.620;2022-11-18T01:49:30;33.57;;;20.77;;
22677;SDS011;26259;50.214;18.620;2022-11-18T01:51:50;30.63;;;19.30;;
22677;SDS011;26259;50.214;18.620;2022-11-18T01:54:25;33.63;;;19.00;;
22677;SDS011;26259;50.214;18.620;2022-11-18T01:57:05;30.07;;;20.67;;
22677;SDS011;26259;50.214;18.620;2022-11-18T01:59:36;32.93;;;21.40;;
22677;SDS011;26259;50.214;18.620;2022-11-18T02:02:05;32.33;;;19.23;;
22677;SDS011;26259;50.214;18.620;2022-11-18T02:04:34;35.47;;;20.23;;
22677;SDS011;26259;50.214;18.620;2022-11-18T02:07:01;35.13;;;20.83;;
22677;SDS011;26259;50.214;18.620;2022-11-18T02:09:27;35.23;;;19.97;;
22677;SDS011;26259;50.214;18.620;2022-11-18T02:11:53;31.57;;;20.30;;
22677;SDS011;26259;50.214;18.620;2022-11-18T02:14:20;30.13;;;20.37;;
22677;SDS011;26259;50.214;18.620;2022-11-18T02:28:21;37.80;;;23.03;;
22677;SDS011;26259;50.214;18.620;2022-11-18T02:31:01;34.00;;;21.37;;
22677;SDS011;26259;50.214;18.620;2022-11-18T02:36:35;36.40;;;22.50;;
22677;SDS011;26259;50.214;18.620;2022-11-18T02:39:09;34.13;;;20.93;;
22677;SDS011;26259;50.214;18.620;2022-11-18T02:41:41;37.43;;;21.90;;
22677;SDS011;26259;50.214;18.620;2022-11-18T02:44:14;38.70;;;22.80;;
22677;SDS011;26259;50.214;18.620;2022-11-18T02:46:42;35.80;;;22.03;;
22677;SDS011;26259;50.214;18.620;2022-11-18T02:49:14;34.63;;;21.67;;
22677;SDS011;26259;50.214;18.620;2022-11-18T02:51:44;37.17;;;21.80;;
22677;SDS011;26259;50.214;18.620;2022-11-18T02:54:11;33.27;;;20.97;;
22677;SDS011;26259;50.214;18.620;2022-11-18T02:56:39;35.23;;;21.63;;
22677;SDS011;26259;50.214;18.620;2022-11-18T02:59:07;32.90;;;18.93;;
22677;SDS011;26259;50.214;18.620;2022-11-18T03:01:33;31.40;;;20.17;;
22677;SDS011;26259;50.214;18.620;2022-11-18T03:04:00;34.70;;;21.20;;
22677;SDS011;26259;50.214;18.620;2022-11-18T03:11:38;37.73;;;22.47;;
22677;SDS011;26259;50.214;18.620;2022-11-18T03:17:08;33.90;;;20.30;;
22677;SDS011;26259;50.214;18.620;2022-11-18T03:22:32;30.57;;;20.03;;
22677;SDS011;26259;50.214;18.620;2022-11-18T03:25:14;33.47;;;18.50;;
22677;SDS011;26259;50.214;18.620;2022-11-18T03:30:24;34.10;;;19.90;;
22677;SDS011;26259;50.214;18.620;2022-11-18T03:32:52;30.13;;;18.23;;
22677;SDS011;26259;50.214;18.620;2022-11-18T03:35:25;30.87;;;18.57;;
22677;SDS011;26259;50.214;18.620;2022-11-18T03:37:56;33.23;;;19.50;;
22677;SDS011;26259;50.214;18.620;2022-11-18T03:40:27;38.13;;;19.17;;
22677;SDS011;26259;50.214;18.620;2022-11-18T03:42:57;32.87;;;19.60;;
22677;SDS011;26259;50.214;18.620;2022-11-18T03:45:33;39.60;;;21.13;;
22677;SDS011;26259;50.214;18.620;2022-11-18T03:48:15;32.40;;;19.47;;
22677;SDS011;26259;50.214;18.620;2022-11-18T03:50:49;37.60;;;21.03;;
22677;SDS011;26259;50.214;18.620;2022-11-18T03:53:44;32.83;;;20.17;;
22677;SDS011;26259;50.214;18.620;2022-11-18T03:56:36;35.20;;;21.37;;
22677;SDS011;26259;50.214;18.620;2022-11-18T03:59:10;40.27;;;22.50;;
22677;SDS011;26259;50.214;18.620;2022-11-18T04:01:44;36.23;;;21.50;;
22677;SDS011;26259;50.214;18.620;2022-11-18T04:04:21;39.87;;;22.03;;
22677;SDS011;26259;50.214;18.620;2022-11-18T04:06:49;35.47;;;22.13;;
22677;SDS011;26259;50.214;18.620;2022-11-18T04:09:28;37.17;;;21.33;;
22677;SDS011;26259;50.214;18.620;2022-11-18T04:12:01;32.03;;;19.93;;
22677;SDS011;26259;50.214;18.620;2022-11-18T04:14:31;31.33;;;19.27;;
22677;SDS011;26259;50.214;18.620;2022-11-18T04:17:20;31.27;;;19.90;;
22677;SDS011;26259;50.214;18.620;2022-11-18T04:19:50;31.20;;;19.03;;
22677;SDS011;26259;50.214;18.620;2022-11-18T04:22:15;30.03;;;18.57;;
22677;SDS011;26259;50.214;18.620;2022-11-18T04:24:43;29.83;;;18.30;;
22677;SDS011;26259;50.214;18.620;2022-11-18T04:27:08;33.40;;;19.33;;
22677;SDS011;26259;50.214;18.620;2022-11-18T04:29:34;32.23;;;19.20;;
22677;SDS011;26259;50.214;18.620;2022-11-18T04:32:00;29.47;;;18.57;;
22677;SDS011;26259;50.214;18.620;2022-11-18T04:34:26;30.30;;;19.33;;
22677;SDS011;26259;50.214;18.620;2022-11-18T04:36:52;32.00;;;18.27;;
22677;SDS011;26259;50.214;18.620;2022-11-18T04:39:18;33.40;;;20.40;;
22677;SDS011;26259;50.214;18.620;2022-11-18T04:41:44;32.17;;;19.70;;
22677;SDS011;26259;50.214;18.620;2022-11-18T04:44:19;31.90;;;20.60;;
22677;SDS011;26259;50.214;18.620;2022-11-18T04:46:45;31.23;;;20.20;;
22677;SDS011;26259;50.214;18.620;2022-11-18T04:49:12;28.33;;;18.63;;
22677;SDS011;26259;50.214;18.620;2022-11-18T04:51:39;28.43;;;18.00;;
22677;SDS011;26259;50.214;18.620;2022-11-18T04:54:06;27.07;;;18.37;;
22677;SDS011;26259;50.214;18.620;2022-11-18T04:56:32;28.33;;;18.10;;
22677;SDS011;26259;50.214;18.620;2022-11-18T04:59:00;27.37;;;17.80;;
22677;SDS011;26259;50.214;18.620;2022-11-18T05:01:27;26.77;;;18.17;;
22677;SDS011;26259;50.214;18.620;2022-11-18T05:03:54;28.30;;;16.77;;
22677;SDS011;26259;50.214;18.620;2022-11-18T05:06:20;30.07;;;17.77;;
22677;SDS011;26259;50.214;18.620;2022-11-18T05:08:46;29.53;;;18.47;;
22677;SDS011;26259;50.214;18.620;2022-11-18T05:11:11;29.40;;;19.77;;
22677;SDS011;26259;50.214;18.620;2022-11-18T05:13:56;28.23;;;19.53;;
22677;SDS011;26259;50.214;18.620;2022-11-18T05:16:21;29.07;;;18.10;;
22677;SDS011;26259;50.214;18.620;2022-11-18T05:18:47;29.20;;;18.93;;
22677;SDS011;26259;50.214;18.620;2022-11-18T05:21:13;27.33;;;18.63;;
22677;SDS011;26259;50.214;18.620;2022-11-18T05:23:38;28.70;;;18.40;;
22677;SDS011;26259;50.214;18.620;2022-11-18T05:26:04;27.57;;;17.17;;
22677;SDS011;26259;50.214;18.620;2022-11-18T05:28:31;26.27;;;17.37;;
22677;SDS011;26259;50.214;18.620;2022-11-18T05:30:57;26.30;;;17.77;;
22677;SDS011;26259;50.214;18.620;2022-11-18T05:33:22;31.87;;;18.47;;
22677;SDS011;26259;50.214;18.620;2022-11-18T05:35:48;29.37;;;18.73;;
22677;SDS011;26259;50.214;18.620;2022-11-18T05:38:14;29.27;;;18.97;;
22677;SDS011;26259;50.214;18.620;2022-11-18T05:40:42;28.97;;;19.13;;
22677;SDS011;26259;50.214;18.620;2022-11-18T05:43:08;31.90;;;20.90;;
22677;SDS011;26259;50.214;18.620;2022-11-18T05:45:35;32.57;;;20.13;;
22677;SDS011;26259;50.214;18.620;2022-11-18T05:48:00;33.50;;;20.17;;
22677;SDS011;26259;50.214;18.620;2022-11-18T05:50:28;30.37;;;19.13;;
22677;SDS011;26259;50.214;18.620;2022-11-18T05:52:55;31.07;;;20.23;;
22677;SDS011;26259;50.214;18.620;2022-11-18T05:55:21;30.73;;;19.20;;
22677;SDS011;26259;50.214;18.620;2022-11-18T05:57:49;32.23;;;20.17;;
22677;SDS011;26259;50.214;18.620;2022-11-18T06:00:15;34.00;;;19.93;;
22677;SDS011;26259;50.214;18.620;2022-11-18T06:02:41;32.80;;;19.97;;
22677;SDS011;26259;50.214;18.620;2022-11-18T06:05:09;34.60;;;19.53;;
22677;SDS011;26259;50.214;18.620;2022-11-18T06:07:37;29.47;;;19.07;;
22677;SDS011;26259;50.214;18.620;2022-11-18T06:10:06;28.83;;;20.07;;
22677;SDS011;26259;50.214;18.620;2022-11-18T06:12:34;29.37;;;20.37;;
22677;SDS011;26259;50.214;18.620;2022-11-18T06:15:25;28.50;;;19.93;;
22677;SDS011;26259;50.214;18.620;2022-11-18T06:18:25;31.23;;;20.03;;
22677;SDS011;26259;50.214;18.620;2022-11-18T06:20:48;31.37;;;20.93;;
22677;SDS011;26259;50.214;18.620;2022-11-18T06:23:15;33.57;;;21.33;;
22677;SDS011;26259;50.214;18.620;2022-11-18T06:25:41;36.47;;;22.67;;
22677;SDS011;26259;50.214;18.620;2022-11-18T06:28:07;34.23;;;22.13;;
22677;SDS011;26259;50.214;18.620;2022-11-18T06:30:34;32.97;;;22.37;;
22677;SDS011;26259;50.214;18.620;2022-11-18T06:33:00;35.33;;;23.97;;
22677;SDS011;26259;50.214;18.620;2022-11-18T06:35:25;35.33;;;22.13;;
22677;SDS011;26259;50.214;18.620;2022-11-18T06:37:51;34.00;;;21.67;;
22677;SDS011;26259;50.214;18.620;2022-11-18T06:40:17;35.23;;;23.10;;
22677;SDS011;26259;50.214;18.620;2022-11-18T06:42:42;34.60;;;23.77;;
22677;SDS011;26259;50.214;18.620;2022-11-18T06:45:26;37.70;;;23.30;;
22677;SDS011;26259;50.214;18.620;2022-11-18T06:47:55;37.67;;;24.03;;
22677;SDS011;26259;50.214;18.620;2022-11-18T06:50:21;40.07;;;24.27;;
22677;SDS011;26259;50.214;18.620;2022-11-18T06:52:47;39.13;;;26.77;;
22677;SDS011;26259;50.214;18.620;2022-11-18T06:55:12;40.90;;;26.53;;
22677;SDS011;26259;50.214;18.620;2022-11-18T06:57:38;42.93;;;25.97;;
22677;SDS011;26259;50.214;18.620;2022-11-18T07:00:04;39.77;;;25.10;;
22677;SDS011;26259;50.214;18.620;2022-11-18T07:02:30;43.23;;;26.80;;
22677;SDS011;26259;50.214;18.620;2022-11-18T07:04:56;40.40;;;26.47;;
22677;SDS011;26259;50.214;18.620;2022-11-18T07:07:21;44.30;;;27.47;;
22677;SDS011;26259;50.214;18.620;2022-11-18T07:09:47;43.23;;;27.33;;
22677;SDS011;26259;50.214;18.620;2022-11-18T07:12:13;43.43;;;27.40;;
22677;SDS011;26259;50.214;18.620;2022-11-18T07:14:38;44.07;;;28.27;;
22677;SDS011;26259;50.214;18.620;2022-11-18T07:17:04;47.07;;;29.13;;
22677;SDS011;26259;50.214;18.620;2022-11-18T07:19:30;44.27;;;27.67;;
22677;SDS011;26259;50.214;18.620;2022-11-18T07:21:55;46.47;;;27.57;;
22677;SDS011;26259;50.214;18.620;2022-11-18T07:24:23;42.10;;;26.10;;
22677;SDS011;26259;50.214;18.620;2022-11-18T07:26:49;41.77;;;25.50;;
22677;SDS011;26259;50.214;18.620;2022-11-18T07:29:14;40.87;;;24.20;;
22677;SDS011;26259;50.214;18.620;2022-11-18T07:31:40;33.50;;;21.27;;
22677;SDS011;26259;50.214;18.620;2022-11-18T07:34:06;34.40;;;20.97;;
22677;SDS011;26259;50.214;18.620;2022-11-18T07:36:31;40.47;;;22.27;;
22677;SDS011;26259;50.214;18.620;2022-11-18T07:38:58;35.37;;;18.83;;
22677;SDS011;26259;50.214;18.620;2022-11-18T07:41:25;32.10;;;19.23;;
22677;SDS011;26259;50.214;18.620;2022-11-18T07:43:53;31.73;;;17.67;;
22677;SDS011;26259;50.214;18.620;2022-11-18T07:46:21;32.20;;;18.87;;
22677;SDS011;26259;50.214;18.620;2022-11-18T07:48:58;33.20;;;18.77;;
22677;SDS011;26259;50.214;18.620;2022-11-18T07:51:26;30.67;;;18.40;;
22677;SDS011;26259;50.214;18.620;2022-11-18T07:53:53;31.50;;;19.77;;
22677;SDS011;26259;50.214;18.620;2022-11-18T07:56:19;30.27;;;18.13;;
22677;SDS011;26259;50.214;18.620;2022-11-18T07:58:46;30.33;;;17.93;;
22677;SDS011;26259;50.214;18.620;2022-11-18T08:01:15;31.03;;;17.70;;
22677;SDS011;26259;50.214;18.620;2022-11-18T08:03:43;27.90;;;17.53;;
22677;SDS011;26259;50.214;18.620;2022-11-18T08:06:10;29.07;;;18.47;;
22677;SDS011;26259;50.214;18.620;2022-11-18T08:08:36;33.40;;;19.90;;
22677;SDS011;26259;50.214;18.620;2022-11-18T08:11:04;31.50;;;19.40;;
22677;SDS011;26259;50.214;18.620;2022-11-18T08:13:32;35.13;;;20.23;;
22677;SDS011;26259;50.214;18.620;2022-11-18T08:15:58;34.83;;;20.20;;
22677;SDS011;26259;50.214;18.620;2022-11-18T08:18:24;34.27;;;18.70;;
22677;SDS011;26259;50.214;18.620;2022-11-18T08:20:51;32.70;;;19.00;;
22677;SDS011;26259;50.214;18.620;2022-11-18T08:23:17;34.83;;;19.70;;
22677;SDS011;26259;50.214;18.620;2022-11-18T08:25:43;29.83;;;18.23;;
22677;SDS011;26259;50.214;18.620;2022-11-18T08:28:10;29.33;;;19.57;;
22677;SDS011;26259;50.214;18.620;2022-11-18T08:30:37;31.40;;;18.63;;
22677;SDS011;26259;50.214;18.620;2022-11-18T08:33:03;30.40;;;18.37;;
22677;SDS011;26259;50.214;18.620;2022-11-18T08:35:29;32.43;;;19.73;;
22677;SDS011;26259;50.214;18.620;2022-11-18T08:37:55;31.10;;;18.60;;
22677;SDS011;26259;50.214;18.620;2022-11-18T08:40:21;36.80;;;22.90;;
22677;SDS011;26259;50.214;18.620;2022-11-18T08:42:47;36.80;;;21.60;;
22677;SDS011;26259;50.214;18.620;2022-11-18T08:45:12;31.77;;;20.47;;
22677;SDS011;26259;50.214;18.620;2022-11-18T08:47:38;33.23;;;21.00;;
22677;SDS011;26259;50.214;18.620;2022-11-18T08:50:05;34.97;;;22.60;;
22677;SDS011;26259;50.214;18.620;2022-11-18T08:52:32;41.00;;;24.13;;
22677;SDS011;26259;50.214;18.620;2022-11-18T08:54:58;42.37;;;25.20;;
22677;SDS011;26259;50.214;18.620;2022-11-18T08:57:23;43.90;;;25.10;;
22677;SDS011;26259;50.214;18.620;2022-11-18T08:59:49;42.33;;;24.30;;
22677;SDS011;26259;50.214;18.620;2022-11-18T09:02:15;42.73;;;27.43;;
22677;SDS011;26259;50.214;18.620;2022-11-18T09:04:43;47.67;;;27.27;;
22677;SDS011;26259;50.214;18.620;2022-11-18T09:07:10;43.87;;;27.07;;
22677;SDS011;26259;50.214;18.620;2022-11-18T09:09:35;43.50;;;25.80;;
22677;SDS011;26259;50.214;18.620;2022-11-18T09:12:01;45.67;;;26.23;;
22677;SDS011;26259;50.214;18.620;2022-11-18T09:14:27;48.57;;;26.97;;
22677;SDS011;26259;50.214;18.620;2022-11-18T09:16:53;48.00;;;27.43;;
22677;SDS011;26259;50.214;18.620;2022-11-18T09:19:18;46.67;;;27.53;;
22677;SDS011;26259;50.214;18.620;2022-11-18T09:21:44;47.90;;;28.50;;
22677;SDS011;26259;50.214;18.620;2022-11-18T09:24:09;51.20;;;27.47;;
22677;SDS011;26259;50.214;18.620;2022-11-18T09:26:35;40.50;;;23.93;;
22677;SDS011;26259;50.214;18.620;2022-11-18T09:29:02;39.20;;;21.87;;
22677;SDS011;26259;50.214;18.620;2022-11-18T09:31:28;35.23;;;22.90;;
22677;SDS011;26259;50.214;18.620;2022-11-18T09:33:53;39.40;;;22.50;;
22677;SDS011;26259;50.214;18.620;2022-11-18T09:36:22;39.83;;;23.23;;
22677;SDS011;26259;50.214;18.620;2022-11-18T09:38:49;43.33;;;25.13;;
22677;SDS011;26259;50.214;18.620;2022-11-18T09:49:25;41.40;;;24.57;;
22677;SDS011;26259;50.214;18.620;2022-11-18T09:51:51;49.17;;;25.30;;
22677;SDS011;26259;50.214;18.620;2022-11-18T09:54:25;40.37;;;23.90;;
22677;SDS011;26259;50.214;18.620;2022-11-18T09:56:54;41.10;;;24.30;;
22677;SDS011;26259;50.214;18.620;2022-11-18T09:59:24;40.83;;;24.67;;
22677;SDS011;26259;50.214;18.620;2022-11-18T10:01:53;43.40;;;24.77;;
22677;SDS011;26259;50.214;18.620;2022-11-18T10:04:26;43.90;;;26.57;;
22677;SDS011;26259;50.214;18.620;2022-11-18T10:06:52;53.97;;;30.87;;
22677;SDS011;26259;50.214;18.620;2022-11-18T10:09:24;50.07;;;30.37;;
22677;SDS011;26259;50.214;18.620;2022-11-18T10:14:54;60.50;;;31.97;;
22677;SDS011;26259;50.214;18.620;2022-11-18T10:17:57;57.33;;;30.30;;
22677;SDS011;26259;50.214;18.620;2022-11-18T10:20:46;52.93;;;28.00;;
22677;SDS011;26259;50.214;18.620;2022-11-18T10:23:27;43.47;;;25.27;;
22677;SDS011;26259;50.214;18.620;2022-11-18T10:25:59;41.73;;;24.63;;
22677;SDS011;26259;50.214;18.620;2022-11-18T10:28:26;46.00;;;25.90;;
22677;SDS011;26259;50.214;18.620;2022-11-18T10:30:53;53.50;;;28.40;;
22677;SDS011;26259;50.214;18.620;2022-11-18T10:33:32;49.33;;;28.27;;
22677;SDS011;26259;50.214;18.620;2022-11-18T10:36:31;53.87;;;29.97;;
22677;SDS011;26259;50.214;18.620;2022-11-18T10:41:36;60.33;;;32.90;;
22677;SDS011;26259;50.214;18.620;2022-11-18T10:44:09;65.73;;;34.87;;
22677;SDS011;26259;50.214;18.620;2022-11-18T10:46:52;52.53;;;29.93;;
22677;SDS011;26259;50.214;18.620;2022-11-18T10:49:18;59.80;;;33.30;;
22677;SDS011;26259;50.214;18.620;2022-11-18T10:51:44;55.13;;;31.03;;
22677;SDS011;26259;50.214;18.620;2022-11-18T10:54:13;58.10;;;30.37;;
22677;SDS011;26259;50.214;18.620;2022-11-18T10:56:46;57.97;;;30.90;;
22677;SDS011;26259;50.214;18.620;2022-11-18T10:59:24;62.70;;;33.13;;
22677;SDS011;26259;50.214;18.620;2022-11-18T11:04:39;68.23;;;35.17;;
22677;SDS011;26259;50.214;18.620;2022-11-18T11:09:58;64.37;;;33.93;;
22677;SDS011;26259;50.214;18.620;2022-11-18T11:12:23;66.23;;;35.63;;
22677;SDS011;26259;50.214;18.620;2022-11-18T11:14:53;66.43;;;35.67;;
22677;SDS011;26259;50.214;18.620;2022-11-18T11:17:32;63.33;;;35.13;;
22677;SDS011;26259;50.214;18.620;2022-11-18T11:22:41;70.30;;;35.93;;
22677;SDS011;26259;50.214;18.620;2022-11-18T11:25:18;61.90;;;34.37;;
22677;SDS011;26259;50.214;18.620;2022-11-18T11:27:57;54.17;;;30.10;;
22677;SDS011;26259;50.214;18.620;2022-11-18T11:30:35;52.83;;;30.17;;
22677;SDS011;26259;50.214;18.620;2022-11-18T11:39:22;63.67;;;31.60;;
22677;SDS011;26259;50.214;18.620;2022-11-18T11:47:39;46.07;;;27.00;;
22677;SDS011;26259;50.214;18.620;2022-11-18T11:55:44;61.33;;;33.90;;
22677;SDS011;26259;50.214;18.620;2022-11-18T12:01:10;57.13;;;31.07;;
22677;SDS011;26259;50.214;18.620;2022-11-18T12:03:57;60.37;;;31.90;;
22677;SDS011;26259;50.214;18.620;2022-11-18T12:06:48;49.30;;;28.93;;
